Time;durP1;ratioP1;P1;durP2;ratioP2;P2;SDS_P1;SDS_P2;PMS_P1;PMS_P2;Temp;Humidity;BMP_temperature;BMP_pressure;BME280_temperature;BME280_humidity;BME280_pressure;Samples;Min_cycle;Max_cycle;Signal;HPM_P1;HPM_P2
2023/03/12 00:00:38;;;;;;;16.75;9.02;;;;;;;12.07;60.24;97386.53;6203224;23;20012;-62
2023/03/12 00:03:03;;;;;;;17.65;9.50;;;;;;;12.06;61.40;97378.88;6178158;23;20444;-62
2023/03/12 00:05:29;;;;;;;18.02;9.77;;;;;;;12.08;62.47;97393.34;6229250;23;20041;-62
2023/03/12 00:07:58;;;;;;;16.90;9.10;;;;;;;12.16;62.16;97402.06;6178612;23;20015;-63
2023/03/12 00:10:26;;;;;;;21.35;10.27;;;;;;;12.06;62.86;97405.72;6180464;23;20043;-62
2023/03/12 00:12:52;;;;;;;20.35;11.30;;;;;;;12.14;64.01;97419.63;6177163;23;20006;-63
2023/03/12 00:15:17;;;;;;;22.23;10.85;;;;;;;12.13;64.40;97424.06;6204193;23;20008;-62
2023/03/12 00:17:43;;;;;;;19.17;11.55;;;;;;;12.13;64.66;97433.69;6178437;23;20303;-62
2023/03/12 00:20:09;;;;;;;21.38;11.27;;;;;;;11.85;65.28;97387.44;6202646;23;20008;-62
2023/03/12 00:22:35;;;;;;;21.30;11.57;;;;;;;11.95;66.20;97432.25;6203040;23;20008;-62
2023/03/12 00:25:01;;;;;;;21.33;11.57;;;;;;;12.01;66.23;97435.94;6201376;23;20570;-62
2023/03/12 00:27:26;;;;;;;17.85;11.02;;;;;;;11.66;66.38;97383.59;6203644;23;20008;-62
2023/03/12 00:29:52;;;;;;;18.70;10.75;;;;;;;11.74;66.46;97397.34;6176289;23;20540;-62
2023/03/12 00:32:17;;;;;;;21.75;12.48;;;;;;;12.01;66.73;97438.53;6201497;23;20012;-62
2023/03/12 00:34:43;;;;;;;23.23;12.35;;;;;;;12.09;66.66;97443.66;6204128;23;20039;-63
2023/03/12 00:37:08;;;;;;;18.05;11.80;;;;;;;12.10;66.10;97446.09;6202950;23;20050;-61
2023/03/12 00:39:34;;;;;;;22.05;12.05;;;;;;;11.96;66.87;97449.53;6202930;23;20515;-62
2023/03/12 00:42:00;;;;;;;19.75;10.40;;;;;;;11.90;67.01;97445.00;6179469;23;20011;-62
2023/03/12 00:44:26;;;;;;;23.67;11.43;;;;;;;11.67;67.96;97451.13;6204153;23;20310;-61
2023/03/12 00:46:51;;;;;;;22.55;11.27;;;;;;;11.52;68.47;97456.31;6178379;23;20012;-62
2023/03/12 00:49:17;;;;;;;20.50;11.02;;;;;;;11.32;69.72;97469.06;6260121;22;20452;-61
2023/03/12 00:51:42;;;;;;;21.52;11.88;;;;;;;11.38;69.86;97480.53;6261677;22;20344;-62
2023/03/12 00:54:08;;;;;;;20.73;11.57;;;;;;;11.34;70.31;97474.09;6232447;22;20075;-61
2023/03/12 00:56:33;;;;;;;20.58;11.45;;;;;;;11.43;70.68;97478.22;6233405;22;20472;-61
2023/03/12 00:58:59;;;;;;;19.75;11.75;;;;;;;11.16;71.55;97435.38;6209609;22;20007;-62
2023/03/12 01:01:26;;;;;;;23.27;12.35;;;;;;;11.44;72.43;97486.81;6234388;22;20008;-62
2023/03/12 01:03:52;;;;;;;23.60;11.70;;;;;;;11.45;73.37;97497.06;6233670;22;20382;-63
2023/03/12 01:06:17;;;;;;;22.98;12.98;;;;;;;11.42;73.45;97499.22;6212029;22;20003;-63
2023/03/12 01:08:43;;;;;;;23.02;11.55;;;;;;;11.47;73.68;97509.91;6212063;22;20034;-63
2023/03/12 01:11:15;;;;;;;26.15;13.13;;;;;;;11.44;74.33;97505.84;6236114;22;20358;-63
2023/03/12 01:13:40;;;;;;;22.52;12.38;;;;;;;11.43;74.30;97500.84;6236810;22;20038;-63
2023/03/12 01:16:06;;;;;;;24.08;11.70;;;;;;;11.33;75.41;97508.88;6235548;22;20007;-64
2023/03/12 01:18:31;;;;;;;21.02;11.55;;;;;;;11.22;75.81;97499.69;6207213;22;20031;-62
2023/03/12 01:20:58;;;;;;;22.38;11.60;;;;;;;11.16;76.29;97509.03;6210821;22;20030;-63
2023/03/12 01:23:23;;;;;;;21.58;11.55;;;;;;;11.23;76.24;97524.75;6237257;22;20004;-63
2023/03/12 01:25:50;;;;;;;23.77;11.80;;;;;;;10.96;76.11;97476.69;6212058;22;20011;-63
2023/03/12 01:28:16;;;;;;;19.25;10.27;;;;;;;11.24;75.67;97521.16;6237132;22;20054;-62
2023/03/12 01:30:42;;;;;;;18.88;10.30;;;;;;;11.26;74.88;97531.38;6211928;22;20000;-62
2023/03/12 01:33:07;;;;;;;20.20;10.25;;;;;;;11.28;75.18;97538.06;6236802;22;20458;-62
2023/03/12 01:35:38;;;;;;;18.60;9.73;;;;;;;11.32;74.94;97538.50;6209760;22;20012;-63
2023/03/12 01:38:04;;;;;;;20.40;10.63;;;;;;;11.02;74.70;97488.16;6237029;22;20208;-62
2023/03/12 01:40:32;;;;;;;20.95;9.80;;;;;;;11.22;74.74;97550.94;6237576;22;20095;-63
2023/03/12 01:42:58;;;;;;;18.85;9.70;;;;;;;11.33;74.54;97561.75;6210128;22;20540;-63
2023/03/12 01:45:54;;;;;;;19.95;8.75;;;;;;;11.36;74.23;97550.19;6236997;22;20065;-63
2023/03/12 01:48:20;;;;;;;14.30;8.60;;;;;;;11.24;74.79;97560.19;6221651;23;20272;-62
2023/03/12 01:50:45;;;;;;;16.88;8.45;;;;;;;11.25;74.76;97567.00;6180912;23;20632;-62
2023/03/12 01:53:11;;;;;;;18.95;8.63;;;;;;;11.33;74.19;97571.34;6180897;23;20451;-62
2023/03/12 01:55:37;;;;;;;17.65;9.07;;;;;;;11.21;73.84;97547.53;6207858;23;20005;-63
2023/03/12 01:58:03;;;;;;;19.00;8.73;;;;;;;10.77;76.16;97564.56;6179662;23;20107;-62
2023/03/12 02:00:28;;;;;;;17.05;8.05;;;;;;;10.53;76.97;97555.13;6181095;23;20091;-63
2023/03/12 02:02:59;;;;;;;18.75;8.02;;;;;;;10.87;76.28;97579.16;6179844;23;20008;-62
2023/03/12 02:05:29;;;;;;;18.88;7.97;;;;;;;10.79;76.37;97572.22;6206540;23;20008;-62
2023/03/12 02:07:56;;;;;;;17.98;7.22;;;;;;;10.69;76.11;97579.41;6181681;23;20046;-62
2023/03/12 02:10:22;;;;;;;17.77;7.60;;;;;;;10.72;75.75;97577.28;6207359;23;20015;-62
2023/03/12 02:12:47;;;;;;;14.88;7.25;;;;;;;10.81;75.85;97578.03;6205756;23;20012;-62
2023/03/12 02:15:12;;;;;;;13.13;6.57;;;;;;;10.71;76.02;97583.44;6205237;23;20028;-62
2023/03/12 02:17:39;;;;;;;20.05;8.05;;;;;;;10.50;77.02;97572.84;6206188;23;20008;-63
2023/03/12 02:20:21;;;;;;;15.05;6.57;;;;;;;10.48;76.99;97585.19;6206831;23;20032;-63
2023/03/12 02:22:51;;;;;;;16.50;7.35;;;;;;;10.36;77.71;97589.94;6206480;23;20011;-63
2023/03/12 02:25:39;;;;;;;16.95;7.03;;;;;;;10.46;77.25;97587.97;6206487;23;20015;-63
2023/03/12 02:28:08;;;;;;;15.73;5.97;;;;;;;10.57;76.33;97586.78;6181236;23;20012;-63
2023/03/12 02:30:35;;;;;;;15.32;6.20;;;;;;;10.34;76.03;97538.13;6205874;23;20008;-63
2023/03/12 02:33:04;;;;;;;16.63;6.55;;;;;;;10.37;76.04;97544.81;6180290;23;20012;-63
2023/03/12 02:35:29;;;;;;;12.50;5.53;;;;;;;10.63;75.90;97596.50;6181858;23;20012;-63
2023/03/12 02:37:55;;;;;;;13.15;5.35;;;;;;;10.41;75.68;97569.47;6180058;23;20189;-63
2023/03/12 02:40:28;;;;;;;13.18;5.68;;;;;;;10.65;75.91;97599.72;6233244;23;20296;-63
2023/03/12 02:42:54;;;;;;;16.48;5.95;;;;;;;10.34;76.17;97556.31;6205526;23;20008;-63
2023/03/12 02:45:20;;;;;;;18.60;6.55;;;;;;;10.46;75.45;97572.38;6180867;23;20039;-63
2023/03/12 02:47:45;;;;;;;16.05;5.65;;;;;;;10.53;76.12;97617.50;6188233;22;20456;-62
2023/03/12 02:50:11;;;;;;;15.18;5.60;;;;;;;10.50;76.48;97622.22;6210250;22;20034;-62
2023/03/12 02:52:37;;;;;;;12.95;6.93;;;;;;;10.48;77.03;97624.97;6236556;22;20329;-64
2023/03/12 02:55:04;;;;;;;13.93;6.03;;;;;;;10.45;77.34;97620.13;6211068;22;20003;-63
2023/03/12 02:57:29;;;;;;;15.93;5.60;;;;;;;10.37;77.59;97628.75;6236328;22;20014;-62
2023/03/12 02:59:55;;;;;;;17.50;5.40;;;;;;;10.13;77.15;97595.84;6236692;22;20008;-63
2023/03/12 03:02:20;;;;;;;13.80;6.00;;;;;;;10.37;77.23;97625.34;6209916;22;20095;-63
2023/03/12 03:04:46;;;;;;;13.27;5.00;;;;;;;10.30;77.04;97622.56;6234445;22;20026;-62
2023/03/12 03:07:11;;;;;;;12.38;5.35;;;;;;;10.29;76.84;97641.72;6233068;22;20479;-63
2023/03/12 03:09:37;;;;;;;13.73;6.00;;;;;;;10.25;77.25;97656.03;6210761;22;20007;-63
2023/03/12 03:12:02;;;;;;;12.05;5.50;;;;;;;10.04;76.91;97648.78;6211512;22;20018;-62
2023/03/12 03:14:28;;;;;;;14.07;5.28;;;;;;;10.07;77.24;97661.41;6210572;22;20008;-62
2023/03/12 03:16:53;;;;;;;10.80;5.90;;;;;;;10.05;77.08;97667.75;6262529;22;20015;-63
2023/03/12 03:19:18;;;;;;;15.80;5.63;;;;;;;9.94;77.53;97680.09;6263208;22;20011;-63
2023/03/12 03:21:44;;;;;;;13.20;5.40;;;;;;;9.90;78.09;97686.59;6236955;22;20494;-64
2023/03/12 03:24:09;;;;;;;16.65;5.65;;;;;;;9.70;77.17;97649.78;6235788;22;20085;-62
2023/03/12 03:26:35;;;;;;;14.25;5.32;;;;;;;9.87;77.67;97684.31;6236476;22;20007;-63
2023/03/12 03:29:00;;;;;;;15.60;6.18;;;;;;;9.66;78.69;97697.00;6209687;22;20011;-63
2023/03/12 03:31:26;;;;;;;12.52;5.38;;;;;;;9.64;78.55;97715.31;6235678;22;20019;-63
2023/03/12 03:33:51;;;;;;;15.38;5.85;;;;;;;9.19;80.37;97719.09;6235148;22;20099;-64
2023/03/12 03:36:18;;;;;;;14.68;5.30;;;;;;;8.88;82.36;97705.88;6233867;22;20508;-63
2023/03/12 03:38:48;;;;;;;11.18;5.13;;;;;;;8.98;83.01;97706.53;6235511;22;20008;-63
2023/03/12 03:41:14;;;;;;;12.32;5.93;;;;;;;9.19;81.97;97700.94;6236780;22;20003;-63
2023/03/12 03:43:40;;;;;;;15.13;5.75;;;;;;;9.21;81.72;97711.97;6235833;22;20004;-63
2023/03/12 03:46:05;;;;;;;11.50;5.00;;;;;;;9.20;81.38;97707.78;6236449;22;20468;-64
2023/03/12 03:48:31;;;;;;;12.35;4.80;;;;;;;9.03;80.75;97681.78;6191504;23;20020;-63
2023/03/12 03:51:00;;;;;;;11.95;4.75;;;;;;;9.34;80.49;97721.91;6179605;23;20020;-63
2023/03/12 03:53:26;;;;;;;14.80;5.07;;;;;;;9.28;80.49;97727.72;6179385;23;20102;-63
2023/03/12 03:55:51;;;;;;;11.88;4.55;;;;;;;9.21;80.26;97730.13;6180941;23;20128;-63
2023/03/12 03:58:17;;;;;;;15.88;4.18;;;;;;;9.21;80.61;97741.31;6205235;23;20015;-63
2023/03/12 04:00:45;;;;;;;13.13;4.22;;;;;;;9.13;80.91;97711.97;6232021;23;20018;-63
2023/03/12 04:03:11;;;;;;;12.38;4.45;;;;;;;8.82;80.93;97692.56;6231771;23;20011;-63
2023/03/12 04:05:36;;;;;;;12.10;4.40;;;;;;;9.06;81.19;97742.09;6179015;23;20398;-63
2023/03/12 04:08:02;;;;;;;9.15;4.38;;;;;;;9.10;80.72;97748.56;6232606;23;20019;-63
2023/03/12 04:10:29;;;;;;;10.23;4.22;;;;;;;9.20;80.52;97754.47;6205087;23;20019;-64
2023/03/12 04:12:54;;;;;;;10.82;4.07;;;;;;;9.18;80.12;97740.81;6205266;23;20015;-64
2023/03/12 04:15:20;;;;;;;10.35;3.92;;;;;;;9.15;79.83;97743.75;6203120;23;20004;-64
2023/03/12 04:17:45;;;;;;;9.75;4.30;;;;;;;9.06;80.63;97771.41;6205706;23;20495;-64
2023/03/12 04:20:11;;;;;;;11.25;3.92;;;;;;;9.04;80.72;97763.78;6180639;23;20370;-63
2023/03/12 04:22:37;;;;;;;11.95;4.28;;;;;;;9.11;80.24;97766.56;6205856;23;20012;-64
2023/03/12 04:25:03;;;;;;;11.68;4.25;;;;;;;9.12;80.30;97778.56;6204918;23;20488;-65
2023/03/12 04:27:29;;;;;;;12.63;4.03;;;;;;;8.97;80.63;97780.13;6206183;23;20030;-64
2023/03/12 04:29:55;;;;;;;11.50;3.97;;;;;;;8.84;80.54;97777.94;6180515;23;20844;-64
2023/03/12 04:32:20;;;;;;;9.43;3.33;;;;;;;8.71;81.26;97775.78;6205170;23;20479;-63
2023/03/12 04:34:45;;;;;;;12.60;3.72;;;;;;;8.70;80.64;97781.09;6179605;23;20008;-64
2023/03/12 04:37:14;;;;;;;10.75;3.75;;;;;;;8.76;80.19;97770.13;6205689;23;20076;-64
2023/03/12 04:39:41;;;;;;;8.23;4.07;;;;;;;8.76;79.73;97772.72;6179518;23;20015;-64
2023/03/12 04:42:07;;;;;;;15.52;4.65;;;;;;;8.75;79.73;97779.69;6206133;23;20019;-64
2023/03/12 04:44:33;;;;;;;13.13;4.80;;;;;;;8.59;79.45;97756.25;6204580;23;20441;-64
2023/03/12 04:46:58;;;;;;;13.52;4.22;;;;;;;8.74;79.95;97783.22;6205560;23;20008;-64
2023/03/12 04:49:23;;;;;;;11.27;3.90;;;;;;;8.65;80.14;97786.72;6207420;22;20027;-64
2023/03/12 04:51:49;;;;;;;16.63;4.30;;;;;;;8.66;80.35;97799.53;6235291;22;20003;-64
2023/03/12 04:54:14;;;;;;;12.75;3.95;;;;;;;8.60;80.55;97807.13;6235468;22;20016;-64
2023/03/12 04:56:40;;;;;;;11.80;4.10;;;;;;;8.13;81.97;97777.13;6208098;22;20011;-64
2023/03/12 04:59:05;;;;;;;13.98;4.50;;;;;;;8.17;83.23;97825.06;6235495;22;20565;-65
2023/03/12 05:01:33;;;;;;;8.05;3.60;;;;;;;8.33;81.98;97829.56;6235278;22;20480;-65
2023/03/12 05:03:59;;;;;;;11.93;4.47;;;;;;;8.15;82.87;97834.75;6234870;22;20011;-65
2023/03/12 05:06:24;;;;;;;11.00;4.07;;;;;;;8.18;82.92;97826.69;6235814;22;20011;-65
2023/03/12 05:08:50;;;;;;;11.27;4.18;;;;;;;8.03;84.07;97839.34;6210660;22;20007;-65
2023/03/12 05:11:17;;;;;;;13.98;4.15;;;;;;;7.89;84.46;97848.41;6209606;22;20004;-64
2023/03/12 05:13:42;;;;;;;12.77;4.15;;;;;;;8.05;83.96;97846.97;6236002;22;20330;-64
2023/03/12 05:16:08;;;;;;;10.13;4.28;;;;;;;8.12;83.12;97847.97;6261716;22;20011;-64
2023/03/12 05:18:34;;;;;;;13.15;4.53;;;;;;;8.23;82.62;97845.19;6235535;22;20019;-65
2023/03/12 05:21:02;;;;;;;10.40;4.07;;;;;;;7.74;83.12;97800.72;6208959;22;20761;-64
2023/03/12 05:23:27;;;;;;;9.40;4.15;;;;;;;8.17;81.61;97847.56;6235534;22;20074;-64
2023/03/12 05:25:53;;;;;;;9.80;3.67;;;;;;;8.12;82.34;97845.38;6210980;22;20058;-64
2023/03/12 05:28:19;;;;;;;11.25;4.78;;;;;;;8.19;82.16;97849.03;6233960;22;20012;-64
2023/03/12 05:30:45;;;;;;;9.80;4.10;;;;;;;8.19;82.43;97858.56;6234699;22;20731;-64
2023/03/12 05:33:11;;;;;;;9.38;4.43;;;;;;;7.77;83.77;97847.00;6234697;22;20104;-64
2023/03/12 05:35:36;;;;;;;10.82;3.70;;;;;;;7.81;84.21;97845.75;6234225;22;20039;-64
2023/03/12 05:38:02;;;;;;;8.25;3.40;;;;;;;8.02;83.48;97867.97;6235723;22;20015;-64
2023/03/12 05:40:27;;;;;;;11.23;3.92;;;;;;;8.05;82.34;97863.31;6209616;22;20018;-65
2023/03/12 05:42:53;;;;;;;10.73;4.53;;;;;;;7.86;82.58;97873.78;6209724;22;20421;-64
2023/03/12 05:45:18;;;;;;;10.52;4.35;;;;;;;7.96;81.93;97882.31;6262128;22;20474;-64
2023/03/12 05:47:44;;;;;;;9.43;3.88;;;;;;;8.00;81.65;97875.06;6227418;23;20063;-64
2023/03/12 05:50:10;;;;;;;9.45;3.55;;;;;;;8.04;81.57;97886.75;6205606;23;20081;-64
2023/03/12 05:52:36;;;;;;;14.23;3.78;;;;;;;7.80;82.35;97889.91;6205686;23;20083;-64
2023/03/12 05:55:01;;;;;;;9.15;4.13;;;;;;;7.79;82.57;97888.25;6181641;23;20396;-62
2023/03/12 05:57:26;;;;;;;10.50;3.95;;;;;;;7.73;82.69;97894.81;6180379;23;20077;-62
2023/03/12 05:59:52;;;;;;;12.23;4.13;;;;;;;7.34;85.14;97886.41;6181482;23;20423;-62
2023/03/12 06:02:17;;;;;;;11.70;4.03;;;;;;;7.51;84.68;97889.06;6181031;23;20579;-63
2023/03/12 06:04:43;;;;;;;11.50;4.05;;;;;;;7.43;85.28;97870.03;6205985;23;20583;-62
2023/03/12 06:07:08;;;;;;;11.15;3.90;;;;;;;7.54;84.77;97897.50;6205791;23;20394;-62
2023/03/12 06:09:34;;;;;;;9.02;3.55;;;;;;;7.49;83.27;97867.69;6233570;23;20043;-63
2023/03/12 06:12:00;;;;;;;10.02;3.70;;;;;;;7.62;83.65;97900.19;6181460;23;20004;-63
2023/03/12 06:14:25;;;;;;;12.40;4.20;;;;;;;7.77;83.57;97909.09;6180978;23;20020;-62
2023/03/12 06:16:51;;;;;;;9.82;4.28;;;;;;;7.83;83.65;97910.28;6180483;23;20008;-63
2023/03/12 06:19:16;;;;;;;14.40;4.45;;;;;;;7.55;83.64;97857.75;6180681;23;20296;-63
2023/03/12 06:21:42;;;;;;;12.57;4.25;;;;;;;7.85;83.97;97908.41;6206037;23;20720;-64
2023/03/12 06:24:08;;;;;;;12.15;5.00;;;;;;;7.68;84.43;97903.03;6205796;23;20952;-63
2023/03/12 06:26:33;;;;;;;9.60;4.03;;;;;;;7.68;85.24;97909.97;6182275;23;20008;-64
2023/03/12 06:28:58;;;;;;;9.45;3.35;;;;;;;7.48;85.09;97904.06;6205083;23;20008;-64
2023/03/12 06:31:24;;;;;;;9.63;3.33;;;;;;;7.42;84.26;97879.56;6181403;23;20008;-63
2023/03/12 06:33:50;;;;;;;12.57;3.38;;;;;;;7.41;85.14;97919.34;6205614;23;20063;-62
2023/03/12 06:36:16;;;;;;;11.88;3.80;;;;;;;7.51;84.26;97911.53;6201864;23;20727;-63
2023/03/12 06:38:42;;;;;;;9.63;3.53;;;;;;;7.61;83.85;97909.75;6205363;23;20004;-63
2023/03/12 06:41:12;;;;;;;8.85;3.50;;;;;;;7.75;82.87;97929.13;6206235;23;20973;-64
2023/03/12 06:43:39;;;;;;;7.88;3.63;;;;;;;7.41;84.36;97921.94;6206107;23;20015;-63
2023/03/12 06:46:05;;;;;;;10.82;3.75;;;;;;;7.64;83.05;97926.75;6206834;23;20030;-62
2023/03/12 06:48:32;;;;;;;10.77;4.03;;;;;;;7.64;83.00;97927.53;6197608;22;20027;-62
2023/03/12 06:50:58;;;;;;;9.05;3.60;;;;;;;7.59;84.12;97927.16;6209996;22;20057;-63
2023/03/12 06:53:24;;;;;;;8.80;3.70;;;;;;;7.57;84.17;97929.06;6236745;22;20070;-63
2023/03/12 06:55:50;;;;;;;8.43;3.72;;;;;;;7.54;84.04;97931.13;6263249;22;20046;-62
2023/03/12 06:58:16;;;;;;;9.98;4.07;;;;;;;7.55;83.50;97933.56;6209808;22;20121;-63
2023/03/12 07:00:41;;;;;;;11.30;3.75;;;;;;;7.64;84.27;97940.47;6235976;22;20083;-63
2023/03/12 07:03:06;;;;;;;10.40;3.88;;;;;;;7.56;84.10;97945.56;6208014;22;20012;-63
2023/03/12 07:05:32;;;;;;;13.48;4.15;;;;;;;7.34;83.97;97910.53;6211425;22;20018;-63
2023/03/12 07:07:57;;;;;;;9.07;3.50;;;;;;;7.66;84.50;97969.63;6234533;22;20008;-63
2023/03/12 07:10:23;;;;;;;12.25;4.28;;;;;;;7.34;85.17;97976.94;6264423;22;20125;-63
2023/03/12 07:12:48;;;;;;;11.65;3.95;;;;;;;7.39;86.32;97988.50;6210797;22;20435;-63
2023/03/12 07:15:14;;;;;;;11.07;3.85;;;;;;;7.26;87.26;97986.19;6236768;22;20435;-63
2023/03/12 07:17:39;;;;;;;9.93;3.83;;;;;;;7.34;87.90;97992.44;6264113;22;20039;-63
2023/03/12 07:20:05;;;;;;;11.23;3.90;;;;;;;7.35;88.76;98000.06;6236210;22;20014;-63
2023/03/12 07:22:31;;;;;;;11.25;3.70;;;;;;;7.32;88.75;98008.94;6235965;22;20890;-63
2023/03/12 07:24:56;;;;;;;10.48;3.83;;;;;;;7.27;89.05;98008.53;6235655;22;20008;-63
2023/03/12 07:27:22;;;;;;;16.02;5.40;;;;;;;7.37;89.18;98015.44;6235918;22;20011;-64
2023/03/12 07:29:48;;;;;;;9.98;4.15;;;;;;;7.53;89.35;98018.28;6263995;22;20018;-63
2023/03/12 07:32:13;;;;;;;11.15;3.95;;;;;;;7.42;89.39;98000.34;6210015;22;20076;-64
2023/03/12 07:34:39;;;;;;;10.02;4.57;;;;;;;7.18;90.13;97980.91;6236651;22;20000;-63
2023/03/12 07:37:04;;;;;;;10.50;4.30;;;;;;;7.31;91.89;98029.75;6209645;22;20004;-63
2023/03/12 07:39:30;;;;;;;13.55;4.65;;;;;;;7.19;95.38;98029.09;6210747;22;20007;-64
2023/03/12 07:41:56;;;;;;;11.60;4.28;;;;;;;7.37;94.51;98024.03;6210051;22;20662;-64
2023/03/12 07:44:21;;;;;;;9.20;4.07;;;;;;;7.31;95.48;98022.81;6208708;22;20012;-64
2023/03/12 07:46:47;;;;;;;11.50;4.20;;;;;;;7.29;94.73;98023.91;6236630;22;20644;-64
2023/03/12 07:49:12;;;;;;;9.93;3.95;;;;;;;7.36;94.85;98034.53;6263086;22;20011;-64
2023/03/12 07:51:37;;;;;;;11.48;4.22;;;;;;;7.32;94.90;98052.09;6208622;22;20433;-64
2023/03/12 07:54:03;;;;;;;13.18;3.65;;;;;;;7.20;97.39;98042.84;6210880;22;20011;-64
2023/03/12 07:56:28;;;;;;;9.68;3.88;;;;;;;7.28;96.59;98046.38;6235607;22;20007;-64
2023/03/12 07:58:54;;;;;;;10.75;3.58;;;;;;;7.45;97.07;98057.78;6235520;22;20035;-64
2023/03/12 08:01:20;;;;;;;10.48;4.10;;;;;;;7.42;97.01;98057.25;6232506;22;20012;-64
2023/03/12 08:03:45;;;;;;;10.15;3.65;;;;;;;7.57;96.02;98062.81;6210296;22;20035;-64
2023/03/12 08:06:10;;;;;;;9.48;4.20;;;;;;;7.21;97.01;98018.59;6235410;22;20093;-64
2023/03/12 08:08:40;;;;;;;9.63;4.57;;;;;;;7.57;98.26;98066.19;6234536;22;20008;-64
2023/03/12 08:11:06;;;;;;;8.02;4.40;;;;;;;7.56;98.16;98061.19;6234988;22;20683;-63
2023/03/12 08:13:31;;;;;;;10.65;4.55;;;;;;;7.35;97.68;98013.00;6235664;22;20025;-66
2023/03/12 08:15:57;;;;;;;9.85;4.22;;;;;;;7.38;97.12;98010.16;6235759;22;20420;-64
2023/03/12 08:18:23;;;;;;;11.98;4.32;;;;;;;7.76;97.17;98065.34;6235450;22;20404;-64
2023/03/12 08:20:53;;;;;;;11.27;4.47;;;;;;;7.74;97.44;98056.91;6236140;22;20558;-64
2023/03/12 08:23:19;;;;;;;;;;;;;;;7.85;97.73;98064.50;6211176;22;20011;-64
2023/03/12 08:25:46;;;;;;;12.10;4.15;;;;;;;7.77;97.82;98071.34;6210701;22;19911;-62
2023/03/12 08:28:11;;;;;;;8.30;3.80;;;;;;;7.82;97.60;98071.75;6234631;22;20080;-62
2023/03/12 08:30:37;;;;;;;10.35;4.50;;;;;;;7.86;97.58;98075.69;6232689;22;20015;-62
2023/03/12 08:33:02;;;;;;;9.80;4.60;;;;;;;7.91;97.92;98078.66;6209890;22;20096;-63
2023/03/12 08:35:27;;;;;;;9.32;4.38;;;;;;;8.00;96.62;98070.03;6208609;22;20733;-62
2023/03/12 08:37:53;;;;;;;7.82;4.30;;;;;;;7.95;96.55;98072.25;6209616;22;20019;-64
2023/03/12 08:40:18;;;;;;;7.72;3.90;;;;;;;8.02;94.05;98075.09;6209420;22;20329;-63
2023/03/12 08:42:44;;;;;;;14.27;4.70;;;;;;;8.09;91.50;98070.97;6208289;22;20022;-64
2023/03/12 08:45:11;;;;;;;10.07;4.68;;;;;;;7.89;94.06;98068.44;6233148;22;20043;-62
2023/03/12 08:47:40;;;;;;;9.20;4.88;;;;;;;7.80;98.34;98073.66;6229775;22;20439;-63
2023/03/12 08:50:07;;;;;;;12.50;5.47;;;;;;;7.68;99.87;98065.22;6260586;22;20133;-63
2023/03/12 08:52:32;;;;;;;10.50;5.25;;;;;;;7.49;99.60;98022.09;6208307;22;20043;-64
2023/03/12 08:54:57;;;;;;;8.00;4.55;;;;;;;7.74;96.77;98061.25;6232923;22;20007;-64
2023/03/12 08:57:23;;;;;;;9.35;3.95;;;;;;;7.79;92.96;98064.25;6234759;22;21073;-63
2023/03/12 08:59:48;;;;;;;10.77;4.35;;;;;;;7.98;91.35;98069.38;6232582;22;20057;-63
2023/03/12 09:02:14;;;;;;;10.02;4.18;;;;;;;7.97;92.00;98082.47;6208377;22;20133;-63
2023/03/12 09:04:39;;;;;;;14.07;6.95;;;;;;;7.98;90.83;98073.75;6206566;22;20061;-62
2023/03/12 09:07:05;;;;;;;21.13;10.15;;;;;;;8.05;89.64;98075.63;6196035;22;20085;-64
2023/03/12 09:09:30;;;;;;;15.77;5.95;;;;;;;8.21;88.02;98080.22;6234824;22;20004;-64
2023/03/12 09:11:56;;;;;;;9.82;4.85;;;;;;;8.34;88.56;98089.41;6261276;22;20416;-64
2023/03/12 09:14:21;;;;;;;11.13;4.65;;;;;;;8.36;84.90;98085.72;6261709;22;20030;-64
2023/03/12 09:16:47;;;;;;;12.30;4.03;;;;;;;7.98;83.21;97989.13;6208752;22;20000;-63
2023/03/12 09:19:12;;;;;;;6.97;3.20;;;;;;;8.37;81.28;98032.94;6205468;22;20039;-63
2023/03/12 09:21:38;;;;;;;7.38;3.45;;;;;;;8.69;79.55;98080.13;6234051;22;20007;-64
2023/03/12 09:24:05;;;;;;;8.02;3.22;;;;;;;8.80;76.15;98072.16;6233380;22;20043;-63
2023/03/12 09:26:30;;;;;;;7.03;2.70;;;;;;;8.97;74.31;98073.13;6211215;22;20102;-64
2023/03/12 09:28:57;;;;;;;6.78;2.55;;;;;;;9.02;72.66;98066.53;6233800;22;20012;-63
2023/03/12 09:31:23;;;;;;;5.78;2.70;;;;;;;9.34;72.39;98093.72;6231121;22;20041;-64
2023/03/12 09:33:48;;;;;;;14.43;3.65;;;;;;;9.42;71.67;98086.00;6233275;22;20004;-64
2023/03/12 09:36:31;;;;;;;7.50;3.40;;;;;;;9.64;70.08;98089.09;6208652;22;20336;-63
2023/03/12 09:38:57;;;;;;;7.05;2.75;;;;;;;9.96;69.94;98091.06;6208653;22;20087;-64
2023/03/12 09:41:26;;;;;;;6.00;2.10;;;;;;;10.09;68.17;98085.47;6235579;22;20102;-64
2023/03/12 09:43:55;;;;;;;5.18;1.85;;;;;;;10.21;65.32;98088.63;6209767;22;20039;-64
2023/03/12 09:46:27;;;;;;;5.00;2.30;;;;;;;10.27;65.75;98085.38;6264037;22;20026;-64
2023/03/12 09:48:55;;;;;;;6.53;2.20;;;;;;;10.48;64.16;98094.63;6235441;22;20024;-62
2023/03/12 09:51:34;;;;;;;8.00;2.60;;;;;;;10.54;63.94;98079.19;6235078;22;20003;-63
2023/03/12 09:54:03;;;;;;;5.07;2.20;;;;;;;10.54;62.14;98050.59;6235865;22;20080;-63
2023/03/12 09:56:28;;;;;;;6.72;2.63;;;;;;;10.95;60.67;98079.31;6234290;22;20087;-64
2023/03/12 09:58:55;;;;;;;6.35;2.50;;;;;;;10.83;60.54;98019.97;6263067;22;20104;-64
2023/03/12 10:01:26;;;;;;;5.88;2.58;;;;;;;11.29;59.65;98067.16;6236046;22;20715;-62
2023/03/12 10:04:04;;;;;;;6.30;2.42;;;;;;;11.29;59.79;98067.16;6233601;22;20018;-62
2023/03/12 10:06:45;;;;;;;7.93;2.47;;;;;;;11.14;59.24;98027.94;6264555;22;20091;-62
2023/03/12 10:09:41;;;;;;;6.57;2.28;;;;;;;11.43;58.57;98081.31;6263498;22;20692;-62
2023/03/12 10:12:32;;;;;;;6.18;2.53;;;;;;;11.47;58.42;98085.22;6235345;22;20003;-62
2023/03/12 10:15:03;;;;;;;6.20;2.42;;;;;;;11.51;58.03;98078.69;6234241;22;20008;-63
2023/03/12 10:17:54;;;;;;;5.95;2.30;;;;;;;11.42;58.17;98048.44;6262496;22;20050;-64
2023/03/12 10:20:51;;;;;;;6.38;2.45;;;;;;;11.60;57.66;98077.69;6236162;22;20014;-63
2023/03/12 10:23:53;;;;;;;6.88;2.40;;;;;;;11.85;57.15;98086.31;6229980;22;20015;-62
2023/03/12 10:26:24;;;;;;;5.32;2.20;;;;;;;11.96;57.31;98081.78;6189396;22;20065;-59
2023/03/12 10:29:14;;;;;;;8.52;2.58;;;;;;;12.17;54.78;98071.59;6237294;22;20008;-61
2023/03/12 10:31:54;;;;;;;6.95;2.15;;;;;;;12.05;55.60;98070.34;6263537;22;20022;-61
2023/03/12 10:34:39;;;;;;;6.40;2.55;;;;;;;12.24;54.91;98069.13;6234615;22;20030;-62
2023/03/12 10:37:14;;;;;;;6.93;2.42;;;;;;;12.24;55.48;98063.91;6262676;22;20387;-62
2023/03/12 10:39:39;;;;;;;4.88;2.15;;;;;;;12.22;55.42;98064.09;6236631;22;20031;-63
2023/03/12 10:42:13;;;;;;;8.57;2.35;;;;;;;12.29;55.63;98059.81;6235688;22;20116;-61
2023/03/12 10:44:39;;;;;;;7.00;2.50;;;;;;;12.31;55.27;98063.06;6233039;22;20008;-64
2023/03/12 10:47:26;;;;;;;7.85;2.63;;;;;;;12.45;54.66;98079.81;6230073;22;20007;-63
2023/03/12 10:49:52;;;;;;;4.95;2.10;;;;;;;12.54;53.75;98074.53;6253208;22;20011;-64
2023/03/12 10:52:21;;;;;;;5.20;2.25;;;;;;;12.58;53.96;98066.22;6229455;22;20042;-64
2023/03/12 10:54:50;;;;;;;5.95;2.50;;;;;;;12.77;52.84;98069.38;6204926;22;20050;-64
2023/03/12 10:57:16;;;;;;;6.95;2.53;;;;;;;12.82;52.09;98074.91;6229754;22;20293;-64
2023/03/12 10:59:44;;;;;;;6.45;2.50;;;;;;;12.81;53.22;98076.72;6228594;22;20000;-64
2023/03/12 11:02:37;;;;;;;5.70;2.30;;;;;;;12.81;53.28;98071.50;6203751;22;20031;-64
2023/03/12 11:05:18;;;;;;;6.03;2.10;;;;;;;12.80;52.92;98074.28;6227906;22;20011;-64
2023/03/12 11:07:44;;;;;;;5.43;2.20;;;;;;;12.85;52.67;98070.16;6256901;22;20039;-64
2023/03/12 11:10:09;;;;;;;7.85;2.17;;;;;;;12.95;52.50;98079.56;6231024;22;20085;-64
2023/03/12 11:12:36;;;;;;;4.97;2.20;;;;;;;12.92;53.00;98078.09;6257043;22;20003;-64
2023/03/12 11:15:41;;;;;;;5.50;2.15;;;;;;;12.91;52.86;98080.91;6229868;22;20429;-64
2023/03/12 11:18:20;;;;;;;5.85;2.30;;;;;;;12.92;52.61;98088.53;6232738;22;20011;-64
2023/03/12 11:20:47;;;;;;;6.57;2.10;;;;;;;12.67;52.62;98033.91;6230514;22;20038;-64
2023/03/12 11:23:21;;;;;;;5.10;2.08;;;;;;;13.03;52.30;98075.09;6229053;22;20098;-64
2023/03/12 11:25:56;;;;;;;5.30;2.30;;;;;;;13.21;52.45;98074.00;6202031;22;20011;-64
2023/03/12 11:28:25;;;;;;;6.35;2.55;;;;;;;13.21;51.75;98087.84;6241499;22;20008;-63
2023/03/12 11:30:52;;;;;;;6.30;2.42;;;;;;;13.24;51.46;98064.00;6198233;22;20602;-63
2023/03/12 11:33:18;;;;;;;6.53;2.35;;;;;;;13.25;51.55;98078.69;6199583;22;20014;-63